Time;durP1;ratioP1;P1;durP2;ratioP2;P2;SDS_P1;SDS_P2;PMS_P1;PMS_P2;Temp;Humidity;BMP_temperature;BMP_pressure;BME280_temperature;BME280_humidity;BME280_pressure;Samples;Min_cycle;Max_cycle;Signal;HPM_P1;HPM_P2
2023/08/20 00:00:29;;;;;;;15.13;13.77;;;26.30;99.90;;;;;;5092621;28;20196;-56
2023/08/20 00:03:03;;;;;;;14.88;13.38;;;26.20;99.90;;;;;;5090761;28;20277;-56
2023/08/20 00:05:29;;;;;;;14.43;13.23;;;26.10;99.90;;;;;;5089558;28;20206;-57
2023/08/20 00:07:55;;;;;;;13.50;12.45;;;26.10;99.90;;;;;;5096157;28;20207;-57
2023/08/20 00:10:20;;;;;;;14.13;12.88;;;26.10;99.90;;;;;;5083058;28;20212;-57
2023/08/20 00:12:45;;;;;;;16.58;15.07;;;26.10;99.90;;;;;;5086705;28;20197;-57
2023/08/20 00:15:11;;;;;;;16.05;13.70;;;26.10;99.90;;;;;;5092247;28;20271;-57
2023/08/20 00:17:39;;;;;;;16.05;14.10;;;26.10;99.90;;;;;;5094530;28;20385;-58
2023/08/20 00:20:12;;;;;;;14.38;13.07;;;26.00;99.90;;;;;;5094653;28;20187;-58
2023/08/20 00:22:39;;;;;;;14.30;12.88;;;25.90;99.90;;;;;;5090423;28;20195;-57
2023/08/20 00:25:05;;;;;;;14.40;13.05;;;25.90;99.90;;;;;;5074755;28;20196;-57
2023/08/20 00:27:31;;;;;;;13.77;12.48;;;26.00;99.90;;;;;;5099833;28;20192;-57
2023/08/20 00:29:56;;;;;;;13.30;12.00;;;26.00;99.90;;;;;;5085948;28;20642;-58
2023/08/20 00:32:22;;;;;;;13.98;12.77;;;26.00;99.90;;;;;;5090735;28;20207;-57
2023/08/20 00:34:47;;;;;;;15.02;13.80;;;26.00;99.90;;;;;;5096706;28;20210;-57
2023/08/20 00:37:12;;;;;;;13.38;12.23;;;25.90;99.90;;;;;;5094093;28;20728;-57
2023/08/20 00:39:39;;;;;;;14.25;13.05;;;25.90;99.90;;;;;;5092809;28;20184;-57
2023/08/20 00:42:05;;;;;;;14.82;13.35;;;25.90;99.90;;;;;;5097248;28;20750;-57
2023/08/20 00:44:31;;;;;;;15.60;12.98;;;26.00;99.90;;;;;;5093218;28;20208;-57
2023/08/20 00:46:57;;;;;;;14.85;13.40;;;25.80;99.90;;;;;;5098751;28;20195;-57
2023/08/20 00:49:22;;;;;;;14.18;12.90;;;25.70;99.90;;;;;;5102052;28;20227;-57
2023/08/20 00:51:50;;;;;;;14.68;13.50;;;25.60;99.90;;;;;;5093240;28;20237;-57
2023/08/20 00:54:15;;;;;;;13.82;12.38;;;25.50;99.90;;;;;;5083261;28;20660;-57
2023/08/20 00:56:41;;;;;;;14.60;13.20;;;25.30;99.90;;;;;;5075172;28;20562;-57
2023/08/20 00:59:07;;;;;;;14.98;12.93;;;25.20;99.90;;;;;;5100022;28;20300;-58
2023/08/20 01:01:32;;;;;;;13.95;12.75;;;25.10;99.90;;;;;;5096354;28;20198;-56
2023/08/20 01:03:58;;;;;;;14.05;12.65;;;25.10;99.90;;;;;;5092630;28;20203;-57
2023/08/20 01:06:42;;;;;;;12.82;11.68;;;25.00;99.90;;;;;;5069596;28;20291;-60
2023/08/20 01:09:34;;;;;;;16.45;12.98;;;25.00;99.90;;;;;;5095290;28;20729;-65
2023/08/20 01:12:02;;;;;;;14.10;12.80;;;24.90;99.90;;;;;;5103288;28;20191;-72
2023/08/20 01:14:27;;;;;;;14.30;12.98;;;25.00;99.90;;;;;;5076737;28;20224;-58
2023/08/20 01:16:53;;;;;;;13.38;12.18;;;24.90;99.90;;;;;;5095894;28;20195;-72
2023/08/20 01:19:21;;;;;;;13.32;12.02;;;24.90;99.90;;;;;;5074724;28;20567;-61
2023/08/20 01:22:20;;;;;;;12.35;11.35;;;24.90;99.90;;;;;;5084186;28;20798;-57
2023/08/20 01:25:19;;;;;;;12.38;11.27;;;25.10;99.90;;;;;;5093575;28;20223;-57
2023/08/20 01:28:18;;;;;;;11.68;10.77;;;25.30;99.90;;;;;;5092513;28;20198;-56
2023/08/20 01:30:44;;;;;;;15.80;12.25;;;25.50;99.90;;;;;;5099149;28;20211;-56
2023/08/20 01:33:12;;;;;;;12.55;11.40;;;25.50;99.90;;;;;;5083476;28;20203;-56
2023/08/20 01:35:38;;;;;;;14.02;12.57;;;25.50;99.90;;;;;;5083738;28;20204;-56
2023/08/20 01:38:04;;;;;;;13.40;12.00;;;25.40;99.90;;;;;;5095611;28;20177;-57
2023/08/20 01:40:31;;;;;;;13.57;12.10;;;25.50;99.90;;;;;;5094600;28;20189;-56
2023/08/20 01:42:57;;;;;;;11.93;10.75;;;25.40;99.90;;;;;;5094313;28;20300;-57
2023/08/20 01:45:22;;;;;;;12.85;11.60;;;25.30;99.90;;;;;;5096373;28;20280;-56
2023/08/20 01:47:48;;;;;;;14.73;12.00;;;25.30;99.90;;;;;;5094432;28;20202;-56
2023/08/20 01:50:14;;;;;;;12.75;11.70;;;25.30;99.90;;;;;;5084973;28;20240;-57
2023/08/20 01:52:39;;;;;;;12.00;11.00;;;25.30;99.90;;;;;;5076854;28;20230;-56
2023/08/20 01:55:05;;;;;;;13.02;11.85;;;25.30;99.90;;;;;;5094318;28;20607;-56
2023/08/20 01:57:31;;;;;;;13.15;11.30;;;25.30;99.90;;;;;;5093304;28;21113;-56
2023/08/20 01:59:57;;;;;;;13.35;12.05;;;25.30;99.90;;;;;;5098561;28;20195;-56
2023/08/20 02:02:23;;;;;;;13.15;12.00;;;25.20;99.90;;;;;;5101059;28;20183;-56
2023/08/20 02:04:48;;;;;;;12.25;11.15;;;25.10;99.90;;;;;;5080548;28;20215;-56
2023/08/20 02:07:14;;;;;;;12.23;11.13;;;25.10;99.90;;;;;;5097238;28;20343;-56
2023/08/20 02:09:40;;;;;;;12.60;11.60;;;25.20;99.90;;;;;;5107499;27;20225;-56
2023/08/20 02:12:05;;;;;;;12.77;11.63;;;25.20;99.90;;;;;;5084777;28;20228;-56
2023/08/20 02:14:34;;;;;;;12.82;11.63;;;25.20;99.90;;;;;;5086067;28;20210;-56
2023/08/20 02:17:03;;;;;;;10.98;9.98;;;25.20;99.90;;;;;;5104744;27;20195;-56
2023/08/20 02:19:28;;;;;;;11.48;10.27;;;25.20;99.90;;;;;;5096702;28;20274;-56
2023/08/20 02:21:54;;;;;;;12.75;11.65;;;25.20;99.90;;;;;;5097666;28;20704;-57
2023/08/20 02:24:20;;;;;;;12.48;11.30;;;25.00;99.90;;;;;;5092340;28;20487;-57
2023/08/20 02:26:45;;;;;;;11.30;10.30;;;25.00;99.90;;;;;;5074085;28;20198;-57
2023/08/20 02:29:11;;;;;;;10.68;9.57;;;25.00;99.90;;;;;;5093625;28;20644;-56
2023/08/20 02:31:36;;;;;;;11.63;10.68;;;25.10;99.90;;;;;;5098459;28;20201;-56
2023/08/20 02:34:02;;;;;;;14.35;11.68;;;25.20;99.90;;;;;;5071825;28;20263;-56
2023/08/20 02:36:27;;;;;;;10.90;10.00;;;25.00;99.90;;;;;;5093442;28;20252;-56
2023/08/20 02:38:53;;;;;;;10.85;9.85;;;25.00;99.90;;;;;;5092189;28;20190;-57
2023/08/20 02:41:19;;;;;;;11.40;10.25;;;25.00;99.90;;;;;;5096523;28;20332;-57
2023/08/20 02:43:45;;;;;;;12.60;9.60;;;25.00;99.90;;;;;;5093628;28;20843;-58
2023/08/20 02:46:10;;;;;;;11.20;10.20;;;25.00;99.90;;;;;;5093208;28;20302;-57
2023/08/20 02:48:36;;;;;;;11.23;10.27;;;25.00;99.90;;;;;;5095640;28;20498;-56
2023/08/20 02:51:02;;;;;;;10.50;9.48;;;25.00;99.90;;;;;;5092502;28;20215;-60
2023/08/20 02:53:28;;;;;;;13.60;10.50;;;24.60;99.90;;;;;;5093491;28;20180;-58
2023/08/20 02:55:53;;;;;;;11.13;10.10;;;24.20;99.90;;;;;;5094844;28;20205;-55
2023/08/20 02:58:19;;;;;;;10.70;9.68;;;24.10;99.90;;;;;;5073515;28;20223;-56
2023/08/20 03:00:44;;;;;;;11.70;10.55;;;23.90;99.90;;;;;;5082728;28;20889;-56
2023/08/20 03:03:11;;;;;;;12.35;11.23;;;23.80;99.90;;;;;;5096174;28;20212;-56
2023/08/20 03:05:37;;;;;;;12.63;11.52;;;23.60;99.90;;;;;;5094208;28;20212;-56
2023/08/20 03:08:05;;;;;;;11.70;10.70;;;23.50;99.90;;;;;;5098069;28;20196;-57
2023/08/20 03:10:32;;;;;;;11.55;10.55;;;23.40;99.90;;;;;;5097351;28;20208;-57
2023/08/20 03:12:59;;;;;;;13.25;11.68;;;23.40;99.90;;;;;;5099530;28;20193;-58
2023/08/20 03:15:24;;;;;;;11.50;10.45;;;23.30;99.90;;;;;;5098899;28;20253;-58
2023/08/20 03:17:50;;;;;;;11.23;10.10;;;23.20;99.90;;;;;;5101709;28;20678;-57
2023/08/20 03:20:15;;;;;;;12.13;11.02;;;23.10;99.90;;;;;;5065992;28;20201;-56
2023/08/20 03:22:41;;;;;;;11.63;10.52;;;23.10;99.90;;;;;;5093654;28;20201;-57
2023/08/20 03:25:06;;;;;;;12.20;11.13;;;23.10;99.90;;;;;;5070223;28;20262;-56
2023/08/20 03:27:32;;;;;;;13.25;11.85;;;23.10;99.90;;;;;;5100731;28;20186;-55
2023/08/20 03:29:58;;;;;;;11.45;10.45;;;23.00;99.90;;;;;;5078849;28;20289;-57
2023/08/20 03:32:23;;;;;;;11.05;10.00;;;23.00;99.90;;;;;;5086863;28;20198;-56
2023/08/20 03:34:49;;;;;;;11.77;10.80;;;22.90;99.90;;;;;;5093190;28;20245;-57
2023/08/20 03:37:15;;;;;;;14.38;11.23;;;22.90;99.90;;;;;;5095867;28;20193;-56
2023/08/20 03:39:40;;;;;;;12.93;11.80;;;22.90;99.90;;;;;;5092984;28;20275;-56
2023/08/20 03:42:06;;;;;;;12.52;11.13;;;22.80;99.90;;;;;;5091412;28;20645;-55
2023/08/20 03:44:31;;;;;;;11.70;10.65;;;22.90;99.90;;;;;;5087966;28;20233;-56
2023/08/20 03:46:57;;;;;;;11.65;10.52;;;22.90;99.90;;;;;;5075823;28;20189;-55
2023/08/20 03:49:23;;;;;;;12.57;11.35;;;22.80;99.90;;;;;;5094186;28;20262;-57
2023/08/20 03:51:48;;;;;;;13.55;12.35;;;22.80;99.90;;;;;;5093700;28;20255;-57
2023/08/20 03:54:14;;;;;;;12.00;10.93;;;22.70;99.90;;;;;;5078188;28;20556;-57
2023/08/20 03:56:39;;;;;;;12.13;11.05;;;22.60;99.90;;;;;;5088593;28;20189;-56
2023/08/20 03:59:05;;;;;;;12.70;11.50;;;22.60;99.90;;;;;;5089506;28;20651;-57
2023/08/20 04:01:31;;;;;;;13.20;11.83;;;22.60;99.90;;;;;;5098337;28;20833;-56
2023/08/20 04:03:57;;;;;;;13.85;12.07;;;22.60;99.90;;;;;;5094180;28;20212;-56
2023/08/20 04:06:22;;;;;;;13.00;11.73;;;22.60;99.90;;;;;;5092033;28;20236;-57
2023/08/20 04:08:48;;;;;;;13.33;12.03;;;22.50;99.90;;;;;;5074368;28;20238;-56
2023/08/20 04:11:14;;;;;;;12.90;11.70;;;22.50;99.90;;;;;;5092250;28;20357;-56
2023/08/20 04:13:42;;;;;;;13.10;11.97;;;22.50;99.90;;;;;;5096587;28;20192;-57
2023/08/20 04:16:08;;;;;;;13.90;12.40;;;22.60;99.90;;;;;;5094350;28;20239;-57
2023/08/20 04:18:34;;;;;;;13.38;12.23;;;22.60;99.90;;;;;;5094758;28;20288;-56
2023/08/20 04:20:59;;;;;;;13.93;12.57;;;22.60;99.90;;;;;;5101831;28;20201;-56
2023/08/20 04:23:25;;;;;;;13.88;12.55;;;22.50;99.90;;;;;;5076698;28;20204;-56
2023/08/20 04:25:50;;;;;;;13.68;12.27;;;22.50;99.90;;;;;;5096819;28;20243;-55
2023/08/20 04:28:16;;;;;;;15.60;12.90;;;22.50;99.90;;;;;;5102931;28;20253;-55
2023/08/20 04:30:41;;;;;;;14.83;13.37;;;22.40;99.90;;;;;;5098376;28;20221;-56
2023/08/20 04:33:07;;;;;;;14.90;13.40;;;22.40;99.90;;;;;;5087601;28;20258;-58
2023/08/20 04:35:33;;;;;;;14.83;13.37;;;22.30;99.90;;;;;;5105668;27;20834;-58
2023/08/20 04:37:59;;;;;;;14.93;13.50;;;22.40;99.90;;;;;;5099509;28;20197;-58
2023/08/20 04:40:24;;;;;;;16.52;14.88;;;22.40;99.90;;;;;;5094546;28;20266;-58
2023/08/20 04:42:51;;;;;;;17.30;13.93;;;22.30;99.90;;;;;;5100553;28;20199;-57
2023/08/20 04:45:19;;;;;;;16.92;15.13;;;22.20;99.90;;;;;;5090757;28;20185;-57
2023/08/20 04:47:44;;;;;;;15.40;14.00;;;22.20;99.90;;;;;;5093061;28;20185;-57
2023/08/20 04:50:10;;;;;;;15.73;14.37;;;22.20;99.90;;;;;;5096776;28;20274;-57
2023/08/20 04:52:35;;;;;;;17.08;14.63;;;22.20;99.90;;;;;;5098481;28;20749;-58
2023/08/20 04:55:01;;;;;;;15.13;13.83;;;22.20;99.90;;;;;;5095971;28;20206;-57
2023/08/20 04:57:27;;;;;;;16.90;15.30;;;22.20;99.90;;;;;;5096475;28;20207;-57
2023/08/20 04:59:53;;;;;;;18.83;16.90;;;22.20;99.90;;;;;;5092167;28;20196;-57
2023/08/20 05:02:18;;;;;;;18.25;16.55;;;22.20;99.90;;;;;;5087341;28;20555;-57
2023/08/20 05:04:44;;;;;;;17.60;15.75;;;22.20;99.90;;;;;;5091631;28;20711;-56
2023/08/20 05:07:09;;;;;;;17.95;16.33;;;22.20;99.90;;;;;;5091933;28;20200;-56
2023/08/20 05:09:35;;;;;;;18.23;15.43;;;22.20;99.90;;;;;;5090829;28;20216;-63
2023/08/20 05:12:00;;;;;;;18.97;17.03;;;22.30;99.90;;;;;;5075074;28;20196;-61
2023/08/20 05:14:26;;;;;;;21.60;18.10;;;22.30;99.90;;;;;;5094425;28;20213;-58
2023/08/20 05:16:51;;;;;;;17.60;15.90;;;22.30;99.90;;;;;;5098164;28;20562;-55
2023/08/20 05:19:17;;;;;;;18.23;16.63;;;22.30;99.90;;;;;;5100254;28;20691;-56
2023/08/20 05:21:42;;;;;;;19.70;17.67;;;22.40;99.90;;;;;;5095489;28;20288;-57
2023/08/20 05:24:08;;;;;;;16.87;15.33;;;22.40;99.90;;;;;;5075500;28;20710;-57
2023/08/20 05:26:34;;;;;;;16.88;15.27;;;22.50;99.90;;;;;;5073736;28;20195;-56
2023/08/20 05:28:59;;;;;;;21.07;17.43;;;22.60;99.90;;;;;;5097800;28;20192;-57
2023/08/20 05:31:25;;;;;;;18.67;16.97;;;22.60;99.90;;;;;;5099874;28;20196;-56
2023/08/20 05:33:50;;;;;;;17.47;15.77;;;22.50;99.90;;;;;;5092323;28;20215;-56
2023/08/20 05:36:16;;;;;;;17.52;15.80;;;22.60;99.90;;;;;;5112343;27;20212;-57
2023/08/20 05:38:45;;;;;;;17.43;15.63;;;22.60;99.90;;;;;;5094901;28;20238;-57
2023/08/20 05:41:10;;;;;;;18.25;16.38;;;22.60;99.90;;;;;;5098398;28;20201;-57
2023/08/20 05:43:38;;;;;;;17.43;15.67;;;22.60;99.90;;;;;;5094789;28;20337;-57
2023/08/20 05:46:04;;;;;;;17.48;15.93;;;22.70;99.90;;;;;;5095517;28;20197;-56
2023/08/20 05:48:30;;;;;;;17.93;16.13;;;22.70;99.90;;;;;;5098911;28;20608;-56
2023/08/20 05:50:55;;;;;;;15.63;14.23;;;22.70;99.90;;;;;;5101298;28;20575;-56
2023/08/20 05:53:22;;;;;;;17.55;15.95;;;22.70;99.90;;;;;;5098085;28;20181;-56
2023/08/20 05:55:47;;;;;;;16.95;15.23;;;22.80;99.90;;;;;;5092468;28;20185;-56
2023/08/20 05:58:13;;;;;;;15.52;13.80;;;22.80;99.90;;;;;;5089991;28;20197;-56
2023/08/20 06:00:38;;;;;;;17.37;15.10;;;23.00;99.90;;;;;;5089957;28;20196;-55
2023/08/20 06:03:04;;;;;;;17.73;15.82;;;23.10;99.90;;;;;;5080016;28;20285;-55
2023/08/20 06:05:30;;;;;;;17.58;14.23;;;23.20;99.90;;;;;;5091105;28;20581;-55
2023/08/20 06:07:55;;;;;;;18.00;15.63;;;23.10;99.90;;;;;;5093181;28;20190;-55
2023/08/20 06:10:20;;;;;;;17.50;15.63;;;23.10;99.90;;;;;;5103508;28;20304;-55
2023/08/20 06:12:46;;;;;;;17.73;16.13;;;23.00;99.90;;;;;;5094260;27;20196;-56
2023/08/20 06:15:12;;;;;;;18.17;16.33;;;22.90;99.90;;;;;;5097576;28;20235;-56
2023/08/20 06:17:37;;;;;;;17.63;15.90;;;22.90;99.90;;;;;;5089366;28;20192;-55
2023/08/20 06:20:08;;;;;;;18.08;16.48;;;22.90;99.90;;;;;;5069041;28;20873;-55
2023/08/20 06:22:34;;;;;;;17.57;15.70;;;22.90;99.90;;;;;;5081098;28;20184;-55
2023/08/20 06:24:59;;;;;;;17.67;15.98;;;22.90;99.90;;;;;;5093898;28;20613;-55
2023/08/20 06:27:25;;;;;;;18.42;16.38;;;22.90;99.90;;;;;;5103486;28;20287;-55
2023/08/20 06:29:51;;;;;;;16.80;14.73;;;22.90;99.90;;;;;;5094269;28;20217;-55
2023/08/20 06:32:16;;;;;;;14.93;13.38;;;22.90;99.90;;;;;;5092994;28;20893;-55
2023/08/20 06:34:42;;;;;;;15.20;13.63;;;23.00;99.90;;;;;;5097153;28;20181;-56
2023/08/20 06:37:07;;;;;;;15.55;14.15;;;23.00;99.90;;;;;;5087787;28;20262;-55
2023/08/20 06:39:32;;;;;;;16.77;13.73;;;23.00;99.90;;;;;;5067425;28;20189;-55
2023/08/20 06:41:58;;;;;;;14.65;13.25;;;22.90;99.90;;;;;;5087940;28;20208;-56
2023/08/20 06:44:24;;;;;;;13.80;12.40;;;22.80;99.90;;;;;;5069950;28;20189;-55
2023/08/20 06:46:49;;;;;;;16.58;13.57;;;22.90;99.90;;;;;;5079076;28;20695;-56
2023/08/20 06:49:14;;;;;;;13.98;12.60;;;22.90;99.90;;;;;;5093854;28;20216;-55
2023/08/20 06:51:40;;;;;;;12.97;11.70;;;22.90;99.90;;;;;;5086218;28;20228;-55
2023/08/20 06:54:06;;;;;;;15.60;13.93;;;22.90;99.90;;;;;;5099348;28;20782;-56
2023/08/20 06:56:32;;;;;;;13.63;12.43;;;22.90;99.90;;;;;;5093999;28;20448;-56
2023/08/20 06:58:57;;;;;;;15.30;13.70;;;22.70;99.90;;;;;;5094149;28;20713;-56
2023/08/20 07:01:23;;;;;;;15.90;14.32;;;22.70;99.90;;;;;;5101065;28;20208;-56
2023/08/20 07:03:49;;;;;;;14.35;13.02;;;22.60;99.90;;;;;;5092450;28;20209;-56
2023/08/20 07:06:16;;;;;;;13.97;12.43;;;22.50;99.90;;;;;;5091616;28;20289;-65
2023/08/20 07:08:41;;;;;;;15.43;13.93;;;22.50;99.90;;;;;;5066182;28;20286;-57
2023/08/20 07:11:07;;;;;;;14.70;13.20;;;22.40;99.90;;;;;;5092083;28;20236;-55
2023/08/20 07:13:33;;;;;;;13.70;12.30;;;22.30;99.90;;;;;;5097977;28;20193;-55
2023/08/20 07:15:58;;;;;;;13.00;11.68;;;22.40;99.90;;;;;;5072508;28;20231;-56
2023/08/20 07:18:23;;;;;;;13.30;12.10;;;22.50;99.90;;;;;;5092461;28;20188;-55
2023/08/20 07:20:50;;;;;;;13.23;11.93;;;22.70;99.90;;;;;;5086985;28;20243;-55
2023/08/20 07:23:15;;;;;;;13.00;11.80;;;22.80;99.90;;;;;;5092227;28;20184;-56
2023/08/20 07:25:41;;;;;;;12.95;11.80;;;22.80;99.90;;;;;;5091283;28;20197;-55
2023/08/20 07:28:08;;;;;;;14.03;12.60;;;22.70;99.90;;;;;;5087914;28;20337;-55
2023/08/20 07:30:34;;;;;;;13.13;11.77;;;22.70;99.90;;;;;;5082646;28;20209;-55
2023/08/20 07:33:00;;;;;;;14.07;12.63;;;22.70;99.90;;;;;;5092813;28;20254;-56
2023/08/20 07:35:26;;;;;;;12.43;11.33;;;22.70;99.90;;;;;;5073033;28;20196;-56
2023/08/20 07:37:51;;;;;;;12.83;11.60;;;22.80;99.90;;;;;;5093953;28;20192;-56
2023/08/20 07:40:17;;;;;;;14.15;12.68;;;22.90;99.90;;;;;;5096920;28;20311;-56
2023/08/20 07:42:43;;;;;;;15.00;13.40;;;22.90;99.90;;;;;;5102442;28;20647;-57
2023/08/20 07:45:10;;;;;;;17.00;13.18;;;23.00;99.90;;;;;;5070547;28;20180;-57
2023/08/20 07:47:37;;;;;;;15.77;13.75;;;22.90;99.90;;;;;;5086754;28;20211;-57
2023/08/20 07:50:06;;;;;;;14.80;13.32;;;22.90;99.90;;;;;;5099433;28;20234;-57
2023/08/20 07:52:32;;;;;;;11.93;10.82;;;23.00;99.90;;;;;;5102188;28;20690;-59
2023/08/20 07:54:58;;;;;;;12.88;11.43;;;23.00;99.90;;;;;;5107432;28;20228;-57
2023/08/20 07:57:23;;;;;;;11.30;10.18;;;22.90;99.90;;;;;;5085931;28;20246;-57
2023/08/20 07:59:50;;;;;;;11.45;10.45;;;23.00;99.90;;;;;;5100276;28;20658;-57
2023/08/20 08:02:15;;;;;;;10.02;9.13;;;22.90;99.90;;;;;;5095721;28;20655;-58
2023/08/20 08:04:42;;;;;;;10.48;9.48;;;22.90;99.90;;;;;;5104174;28;20215;-57
2023/08/20 08:07:08;;;;;;;9.93;9.02;;;23.00;99.90;;;;;;5099798;28;20208;-57
2023/08/20 08:09:34;;;;;;;9.75;8.90;;;23.20;99.90;;;;;;5075780;28;20209;-57
2023/08/20 08:12:00;;;;;;;7.95;7.25;;;23.30;99.90;;;;;;5093826;28;20201;-58
2023/08/20 08:14:25;;;;;;;8.25;7.50;;;23.50;99.90;;;;;;5096466;28;20203;-58
2023/08/20 08:16:51;;;;;;;8.82;7.95;;;23.50;99.90;;;;;;5096198;28;20205;-58
2023/08/20 08:19:17;;;;;;;8.48;7.75;;;23.60;99.90;;;;;;5095176;28;20604;-57
2023/08/20 08:21:44;;;;;;;10.60;8.20;;;23.60;99.90;;;;;;5093162;28;20192;-58
2023/08/20 08:24:10;;;;;;;8.70;7.40;;;23.60;99.90;;;;;;5100679;28;20255;-58
2023/08/20 08:26:36;;;;;;;9.10;7.95;;;23.60;99.90;;;;;;5103125;28;20197;-58
2023/08/20 08:29:06;;;;;;;8.65;7.80;;;23.50;99.90;;;;;;5096256;28;20184;-58
2023/08/20 08:31:32;;;;;;;8.25;6.47;;;23.60;99.90;;;;;;5104382;28;20220;-58
2023/08/20 08:33:57;;;;;;;8.18;7.35;;;23.70;99.90;;;;;;5103331;28;20205;-58
2023/08/20 08:36:24;;;;;;;6.75;6.15;;;23.80;99.90;;;;;;5091850;28;20960;-56
2023/08/20 08:38:50;;;;;;;9.18;6.60;;;23.90;99.90;;;;;;5096514;28;20253;-56
2023/08/20 08:41:16;;;;;;;7.15;5.78;;;24.10;99.90;;;;;;5095153;28;20190;-64
2023/08/20 08:43:42;;;;;;;6.35;5.75;;;24.20;99.90;;;;;;5100098;28;20193;-62
2023/08/20 08:46:13;;;;;;;9.35;6.45;;;24.30;99.90;;;;;;5093121;28;20655;-62
2023/08/20 08:48:41;;;;;;;6.70;6.00;;;24.50;99.90;;;;;;5099112;28;20275;-62
2023/08/20 08:51:06;;;;;;;6.82;5.82;;;24.70;99.90;;;;;;5098322;28;20219;-62
2023/08/20 08:53:32;;;;;;;6.07;5.45;;;24.70;99.90;;;;;;5105260;28;20179;-63
2023/08/20 08:55:58;;;;;;;5.82;5.22;;;24.70;99.90;;;;;;5103597;28;20194;-62
2023/08/20 08:58:24;;;;;;;7.68;5.88;;;24.70;99.90;;;;;;5077311;28;20203;-62
2023/08/20 09:00:49;;;;;;;5.50;5.10;;;24.90;99.90;;;;;;5077580;28;20188;-59
2023/08/20 09:03:15;;;;;;;5.75;5.28;;;24.90;99.90;;;;;;5092330;28;20209;-62
2023/08/20 09:05:54;;;;;;;6.32;5.35;;;25.00;99.90;;;;;;5099203;28;20216;-61
2023/08/20 09:08:27;;;;;;;5.40;4.95;;;25.20;99.90;;;;;;5089700;28;20206;-59
2023/08/20 09:10:53;;;;;;;5.35;4.72;;;25.20;99.90;;;;;;5095643;28;20210;-68
2023/08/20 09:13:24;;;;;;;4.72;4.32;;;25.20;99.90;;;;;;5087752;28;20200;-65
2023/08/20 09:15:54;;;;;;;5.40;4.22;;;25.10;99.90;;;;;;5079154;28;20239;-64
2023/08/20 09:18:20;;;;;;;4.70;4.30;;;25.30;99.90;;;;;;5093279;28;20218;-62
2023/08/20 09:20:49;;;;;;;4.50;4.13;;;25.40;99.90;;;;;;5100502;28;20219;-63
2023/08/20 09:23:15;;;;;;;5.05;4.60;;;25.40;99.90;;;;;;5090447;28;20192;-63
2023/08/20 09:25:45;;;;;;;4.60;4.20;;;25.40;99.90;;;;;;5095037;28;20201;-67
2023/08/20 09:28:10;;;;;;;5.47;4.45;;;25.20;99.90;;;;;;5078249;28;20837;-62
2023/08/20 09:30:39;;;;;;;5.78;4.68;;;25.00;99.90;;;;;;5080053;28;20272;-72
2023/08/20 09:33:11;;;;;;;7.15;4.20;;;25.00;99.90;;;;;;5097595;28;20694;-60
2023/08/20 09:35:36;;;;;;;6.35;3.85;;;25.10;99.90;;;;;;5092778;28;20188;-62
2023/08/20 09:38:04;;;;;;;3.88;3.40;;;24.80;99.90;;;;;;5092686;28;20200;-64
2023/08/20 09:40:30;;;;;;;4.65;4.20;;;24.60;99.90;;;;;;5074130;28;20190;-71
2023/08/20 09:42:56;;;;;;;4.95;4.40;;;24.60;99.90;;;;;;5076320;28;20234;-64
2023/08/20 09:45:24;;;;;;;4.82;4.03;;;24.80;99.90;;;;;;5096270;28;20202;-67
2023/08/20 09:47:57;;;;;;;14.05;4.07;;;24.80;99.90;;;;;;5071678;28;20272;-64
2023/08/20 09:50:24;;;;;;;4.20;3.45;;;24.80;99.90;;;;;;5078676;28;20218;-58
2023/08/20 09:52:58;;;;;;;4.80;4.10;;;24.80;99.90;;;;;;5083033;28;20448;-60
2023/08/20 09:55:44;;;;;;;4.18;3.75;;;24.70;99.90;;;;;;5082621;28;20186;-61
2023/08/20 09:58:11;;;;;;;4.22;3.83;;;24.60;99.90;;;;;;5074938;28;20216;-67
2023/08/20 10:00:37;;;;;;;3.67;3.10;;;24.70;99.90;;;;;;5077651;28;20196;-67
2023/08/20 10:03:03;;;;;;;4.05;2.83;;;24.70;99.90;;;;;;5098875;28;20189;-59
2023/08/20 10:05:29;;;;;;;3.88;3.53;;;24.80;99.90;;;;;;5072371;28;20223;-59
2023/08/20 10:07:55;;;;;;;4.05;2.50;;;25.10;99.90;;;;;;5096949;28;20197;-58
2023/08/20 10:10:21;;;;;;;4.75;2.67;;;25.20;99.90;;;;;;5090972;28;20218;-58
2023/08/20 10:12:48;;;;;;;5.72;2.80;;;25.10;99.90;;;;;;5078001;28;20430;-63
2023/08/20 10:15:14;;;;;;;2.60;1.98;;;25.10;99.90;;;;;;5081273;28;20263;-64
2023/08/20 10:17:42;;;;;;;2.33;2.17;;;25.00;99.90;;;;;;5095409;28;20186;-63
2023/08/20 10:20:10;;;;;;;3.17;2.55;;;25.20;99.90;;;;;;5093202;28;20206;-63
2023/08/20 10:22:40;;;;;;;4.18;2.38;;;25.20;99.90;;;;;;5072364;28;20248;-62
2023/08/20 10:25:10;;;;;;;3.25;2.72;;;25.30;99.90;;;;;;5092063;28;20256;-63
2023/08/20 10:27:40;;;;;;;2.97;2.70;;;25.40;99.90;;;;;;5097936;27;20184;-63
2023/08/20 10:30:15;;;;;;;2.10;2.00;;;25.40;99.90;;;;;;5095726;28;20215;-64
2023/08/20 10:32:48;;;;;;;3.00;2.33;;;25.40;99.90;;;;;;5092999;28;20250;-64
2023/08/20 10:35:27;;;;;;;4.22;2.60;;;25.40;99.90;;;;;;5100301;28;20178;-70
2023/08/20 10:38:19;;;;;;;3.00;2.75;;;25.50;99.90;;;;;;5082303;28;20180;-62
2023/08/20 10:40:58;;;;;;;2.95;2.75;;;25.60;99.90;;;;;;5078420;28;20280;-61
2023/08/20 10:43:39;;;;;;;4.32;2.70;;;25.50;99.90;;;;;;5080050;28;20216;-61
2023/08/20 10:46:18;;;;;;;2.78;2.58;;;25.80;99.90;;;;;;5092970;28;20188;-61
2023/08/20 10:48:57;;;;;;;2.67;2.47;;;25.80;99.90;;;;;;5079739;28;20574;-62
2023/08/20 10:51:37;;;;;;;3.92;3.20;;;25.90;99.90;;;;;;5082882;28;20230;-62
2023/08/20 10:54:09;;;;;;;3.45;3.15;;;26.00;99.90;;;;;;5086153;28;20188;-67
2023/08/20 10:56:48;;;;;;;3.45;3.08;;;26.00;99.90;;;;;;5076876;28;20195;-71
2023/08/20 10:59:21;;;;;;;4.25;2.63;;;26.10;99.90;;;;;;5078748;28;20180;-58
2023/08/20 11:01:51;;;;;;;2.55;2.35;;;26.20;99.90;;;;;;5092644;28;20192;-58
2023/08/20 11:04:21;;;;;;;2.97;2.75;;;26.40;99.90;;;;;;5075553;28;20200;-59
2023/08/20 11:06:49;;;;;;;2.58;2.38;;;26.60;99.90;;;;;;5092552;28;20193;-68
2023/08/20 11:09:15;;;;;;;3.08;2.58;;;26.70;99.90;;;;;;5097182;28;21016;-57
2023/08/20 11:11:41;;;;;;;3.00;2.83;;;26.90;99.90;;;;;;5101782;28;20196;-58
2023/08/20 11:14:13;;;;;;;4.05;2.45;;;27.20;99.90;;;;;;5080204;28;20227;-58
2023/08/20 11:16:39;;;;;;;3.42;2.53;;;27.30;99.90;;;;;;5089136;28;20188;-69
2023/08/20 11:19:08;;;;;;;3.05;2.30;;;27.60;99.90;;;;;;5073172;28;20196;-65
2023/08/20 11:21:38;;;;;;;4.93;2.42;;;27.70;99.90;;;;;;5080052;28;20184;-63
2023/08/20 11:24:04;;;;;;;3.75;2.58;;;27.70;99.90;;;;;;5094193;28;20263;-64
2023/08/20 11:26:30;;;;;;;5.40;2.42;;;28.00;99.90;;;;;;5080169;28;20203;-70
2023/08/20 11:28:55;;;;;;;4.85;1.90;;;28.00;99.90;;;;;;5098679;28;20689;-62
2023/08/20 11:31:21;;;;;;;4.28;2.53;;;28.00;99.90;;;;;;5097110;28;20611;-60
2023/08/20 11:33:48;;;;;;;3.63;2.40;;;28.00;99.90;;;;;;5071743;28;20211;-59
2023/08/20 11:36:16;;;;;;;2.75;2.28;;;27.70;99.90;;;;;;5094972;28;20181;-65
2023/08/20 11:38:42;;;;;;;2.60;2.40;;;27.90;99.90;;;;;;5093244;28;20193;-70
2023/08/20 11:41:07;;;;;;;2.63;2.30;;;28.10;99.90;;;;;;5080784;28;20765;-60
2023/08/20 11:43:33;;;;;;;2.95;2.47;;;28.50;99.90;;;;;;5095658;28;20190;-78
2023/08/20 11:45:59;;;;;;;2.28;2.08;;;28.30;99.90;;;;;;5076265;28;20853;-76
2023/08/20 11:48:24;;;;;;;6.38;2.40;;;28.50;99.90;;;;;;5093052;28;20189;-58
2023/08/20 11:50:50;;;;;;;3.38;2.40;;;28.70;99.90;;;;;;5097221;28;20219;-67
2023/08/20 11:53:23;;;;;;;3.63;2.15;;;28.50;99.90;;;;;;5074566;28;20205;-63
2023/08/20 11:55:49;;;;;;;2.70;2.50;;;29.10;99.90;;;;;;5078226;28;20193;-68
2023/08/20 11:58:15;;;;;;;4.03;2.13;;;29.00;99.90;;;;;;5093346;28;20204;-63
2023/08/20 12:00:40;;;;;;;2.80;2.08;;;29.00;99.90;;;;;;5091701;28;20606;-64
2023/08/20 12:03:07;;;;;;;3.72;2.45;;;29.30;98.70;;;;;;5095563;28;20199;-64
2023/08/20 12:05:33;;;;;;;2.30;2.13;;;29.60;97.60;;;;;;5079766;28;20337;-65
2023/08/20 12:08:00;;;;;;;2.55;2.05;;;29.80;97.00;;;;;;5090800;28;20267;-70
2023/08/20 12:10:27;;;;;;;3.33;1.83;;;30.00;95.70;;;;;;5097092;28;20220;-67
2023/08/20 12:12:55;;;;;;;4.28;2.33;;;30.20;95.10;;;;;;5089935;28;20280;-63
2023/08/20 12:15:24;;;;;;;2.63;1.88;;;30.50;94.20;;;;;;5098102;28;20178;-68
2023/08/20 12:18:06;;;;;;;3.67;2.15;;;30.20;95.50;;;;;;5090684;28;21121;-72
2023/08/20 12:20:33;;;;;;;2.50;1.55;;;30.20;93.80;;;;;;5082015;28;20185;-75
2023/08/20 12:23:05;;;;;;;2.25;2.08;;;30.90;91.50;;;;;;5086973;28;20289;-69
2023/08/20 12:25:33;;;;;;;3.45;1.95;;;31.30;90.00;;;;;;5074687;28;20181;-79
2023/08/20 12:27:59;;;;;;;3.13;2.13;;;31.20;91.90;;;;;;5072309;28;20192;-60
2023/08/20 12:30:24;;;;;;;2.10;1.90;;;30.90;93.10;;;;;;5093451;28;20209;-63
2023/08/20 12:32:50;;;;;;;1.77;1.67;;;30.70;91.10;;;;;;5098833;28;20200;-64